Terminal Aerodrome Forecast
Issued by NWS Portland, OR

Home | Current Version | Previous Version | Text Only | Print | Product List | Glossary On
Versions: 1 2 3 4 5 6 7 8 9 10 11 12 13 14 15 16 17
000
FTUS46 KPQR 251141
TAFAST
TAF
KAST 251141Z 2512/2612 28004KT P6SM BKN015 BKN022 OVC035
     FM251800 31007KT P6SM SCT015 BKN025
     FM252200 31011KT P6SM SCT025
     FM260400 28006KT P6SM BKN025=

USA.gov is the U.S. government's official web portal to all federal, state and local government web resources and services.